createdAt,value
2019-05-02T00:03:53.944Z,24.50
2019-05-02T00:08:58.846Z,24.00
2019-05-02T00:14:09.352Z,27.55
2019-05-02T00:19:14.294Z,19.00
2019-05-02T00:24:18.994Z,23.00
2019-05-02T00:29:23.690Z,29.00
2019-05-02T00:34:34.223Z,27.55
2019-05-02T00:39:38.784Z,27.50
2019-05-02T00:44:48.188Z,31.00
2019-05-02T00:49:54.782Z,28.75
2019-05-02T00:55:01.351Z,29.00
2019-05-02T01:00:16.367Z,30.12
2019-05-02T01:05:22.924Z,29.55
2019-05-02T01:10:29.203Z,30.62
2019-05-02T01:15:39.115Z,32.75
2019-05-02T01:20:44.126Z,36.50
2019-05-02T01:25:54.499Z,38.25
2019-05-02T01:31:01.595Z,40.56
2019-05-02T01:36:10.422Z,39.00
2019-05-02T01:41:18.305Z,42.56
2019-05-02T01:46:27.116Z,46.50
2019-05-02T01:51:36.791Z,45.38
2019-05-02T01:56:40.466Z,50.00
2019-05-02T02:01:47.804Z,51.00
2019-05-02T02:06:54.096Z,49.38
2019-05-02T02:12:04.946Z,47.62
2019-05-02T02:17:10.060Z,49.75
2019-05-02T02:22:16.439Z,49.63
2019-05-02T02:27:24.663Z,50.00
2019-05-02T02:32:30.691Z,50.00
2019-05-02T02:37:37.833Z,45.89
2019-05-02T02:42:44.329Z,48.17
2019-05-02T02:47:52.872Z,49.00
2019-05-02T02:52:58.028Z,48.25
2019-05-02T02:58:04.712Z,48.00
2019-05-02T03:03:11.133Z,45.25
2019-05-02T03:08:15.900Z,46.00
2019-05-02T03:13:21.636Z,53.00
2019-05-02T03:18:39.719Z,44.00
2019-05-02T03:23:38.758Z,44.50
2019-05-02T03:28:57.124Z,46.37
2019-05-02T03:33:59.771Z,42.88
2019-05-02T03:39:00.139Z,40.00
2019-05-02T03:44:11.306Z,39.63
2019-05-02T03:49:15.873Z,34.75
2019-05-02T03:54:22.384Z,36.83
2019-05-02T03:59:37.183Z,46.00
2019-05-02T04:04:36.170Z,33.22
2019-05-02T04:09:43.452Z,34.00
2019-05-02T04:14:55.574Z,34.13
2019-05-02T04:20:09.409Z,35.33
2019-05-02T04:25:10.893Z,28.50
2019-05-02T04:30:15.709Z,27.50
2019-05-02T04:35:28.732Z,29.58
2019-05-02T04:40:41.782Z,24.27
2019-05-02T04:45:55.249Z,20.75
2019-05-02T04:50:51.771Z,19.33
2019-05-02T04:56:05.094Z,20.37
2019-05-02T05:01:02.258Z,18.50
2019-05-02T05:06:12.236Z,20.50
2019-05-02T05:11:20.838Z,26.62
2019-05-02T05:16:23.712Z,18.37
2019-05-02T05:21:29.593Z,16.29
2019-05-02T05:26:40.987Z,26.50
2019-05-02T05:31:42.828Z,29.37
2019-05-02T05:36:51.161Z,26.37
2019-05-02T05:41:59.588Z,22.13
2019-05-02T05:47:07.245Z,20.00
2019-05-02T05:52:11.881Z,19.29
2019-05-02T05:57:17.462Z,18.67
2019-05-02T06:02:22.409Z,24.50
2019-05-02T06:07:33.604Z,20.88
2019-05-02T06:12:37.210Z,23.87
2019-05-02T06:17:45.644Z,19.62
2019-05-02T06:22:54.952Z,21.14
2019-05-02T06:28:00.296Z,27.86
2019-05-02T06:33:07.390Z,21.62
2019-05-02T06:38:14.211Z,23.00
2019-05-02T06:43:17.679Z,27.00
2019-05-02T06:48:22.902Z,20.43
2019-05-02T06:53:29.009Z,32.13
2019-05-02T06:58:41.385Z,28.87
2019-05-02T07:03:46.272Z,25.25
2019-05-02T07:08:50.742Z,25.88
2019-05-02T07:13:55.943Z,29.00
2019-05-02T07:19:02.161Z,28.62
2019-05-02T07:24:06.626Z,32.75
2019-05-02T07:29:11.143Z,31.00
2019-05-02T07:34:14.709Z,27.33
2019-05-02T07:39:23.427Z,26.50
2019-05-02T07:44:32.580Z,33.86
2019-05-02T07:49:35.701Z,26.50
2019-05-02T07:54:41.711Z,31.00
2019-05-02T07:59:49.896Z,26.43
2019-05-02T08:05:00.014Z,32.00
2019-05-02T08:10:05.909Z,26.25
2019-05-02T08:15:13.356Z,28.00
2019-05-02T08:20:21.300Z,23.62
2019-05-02T08:25:29.084Z,23.12
2019-05-02T08:30:40.393Z,26.25
2019-05-02T08:35:45.408Z,24.50
2019-05-02T08:40:49.778Z,24.00
2019-05-02T08:45:58.378Z,24.50
2019-05-02T08:51:02.127Z,22.67
2019-05-02T08:56:07.553Z,25.57
2019-05-02T09:01:13.724Z,27.00
2019-05-02T09:06:17.210Z,17.00
2019-05-02T09:11:26.412Z,21.62
2019-05-02T09:16:32.863Z,25.71
2019-05-02T09:21:37.907Z,24.50
2019-05-02T09:26:43.320Z,19.71
2019-05-02T09:31:50.348Z,23.38
2019-05-02T09:36:53.250Z,26.33
2019-05-02T09:41:58.741Z,21.71
2019-05-02T09:47:02.439Z,24.50
2019-05-02T09:52:08.514Z,25.37
2019-05-02T09:57:14.776Z,22.14
2019-05-02T10:02:22.242Z,23.75
2019-05-02T10:07:29.588Z,33.88
2019-05-02T10:12:38.833Z,28.87
2019-05-02T10:17:46.756Z,28.00
2019-05-02T10:22:49.107Z,26.67
2019-05-02T10:27:53.359Z,27.00
2019-05-02T10:33:02.525Z,20.00
2019-05-02T10:38:17.996Z,38.13
2019-05-02T10:43:18.154Z,22.13
2019-05-02T10:48:28.014Z,31.50
2019-05-02T10:53:26.527Z,22.67
2019-05-02T10:58:35.798Z,21.75
2019-05-02T11:03:43.736Z,32.88
2019-05-02T11:08:49.552Z,22.00
2019-05-02T11:14:00.449Z,25.50
2019-05-02T11:19:03.034Z,27.00
2019-05-02T11:24:07.352Z,24.00
2019-05-02T11:29:13.577Z,28.25
2019-05-02T11:34:22.106Z,25.14
2019-05-02T11:39:40.962Z,38.50
2019-05-02T11:44:36.387Z,27.25
2019-05-02T11:49:42.329Z,39.00
2019-05-02T11:54:52.124Z,29.87
2019-05-02T11:59:59.472Z,26.00
2019-05-02T12:05:04.764Z,45.25
2019-05-02T12:10:09.646Z,28.00
2019-05-02T12:15:18.124Z,31.00
2019-05-02T12:20:28.545Z,24.00
2019-05-02T12:25:33.098Z,27.50
2019-05-02T12:30:37.821Z,24.00
2019-05-02T12:35:43.468Z,24.86
2019-05-02T12:40:48.793Z,23.00
2019-05-02T12:45:52.954Z,24.00
2019-05-02T12:50:57.102Z,17.40
2019-05-02T12:56:03.593Z,26.50
2019-05-02T13:01:07.310Z,22.50
2019-05-02T13:06:15.328Z,25.37
2019-05-02T13:11:22.764Z,22.87
2019-05-02T13:16:29.106Z,23.75
2019-05-02T13:21:41.461Z,23.25
2019-05-02T13:26:42.908Z,22.14
2019-05-02T13:31:48.339Z,21.00
2019-05-02T13:36:57.848Z,22.50
2019-05-02T13:42:03.557Z,20.29
2019-05-02T13:47:07.375Z,29.00
2019-05-02T13:52:11.870Z,24.17
2019-05-02T13:57:17.195Z,23.00
2019-05-02T14:02:39.920Z,35.00
2019-05-02T14:07:48.395Z,17.00
2019-05-02T14:12:52.837Z,19.50
2019-05-02T14:17:58.894Z,18.29
2019-05-02T14:23:06.179Z,17.75
2019-05-02T14:28:09.643Z,17.00
2019-05-02T14:33:12.780Z,32.33
2019-05-02T14:38:18.310Z,19.57
2019-05-02T14:43:22.971Z,16.29
2019-05-02T14:48:28.317Z,20.00
2019-05-02T14:53:32.076Z,21.50
2019-05-02T14:58:37.746Z,19.00
2019-05-02T15:03:42.317Z,19.25
2019-05-02T15:08:49.603Z,21.50
2019-05-02T15:13:56.716Z,22.11
2019-05-02T15:19:02.094Z,24.00
2019-05-02T15:24:04.980Z,18.00
2019-05-02T15:29:12.276Z,25.00
2019-05-02T15:34:13.430Z,21.00
2019-05-02T15:44:27.022Z,22.50
2019-05-02T15:49:36.686Z,19.00
2019-05-02T15:54:42.542Z,18.00
2019-05-02T15:59:47.367Z,17.29
2019-05-02T16:04:56.914Z,18.12
2019-05-02T16:10:01.096Z,16.33
2019-05-02T16:15:12.950Z,16.43
2019-05-02T16:20:13.547Z,17.71
2019-05-02T16:25:19.984Z,17.00
2019-05-02T16:30:24.808Z,15.00
2019-05-02T16:35:31.677Z,14.00
2019-05-02T16:40:41.767Z,18.90
2019-05-02T16:45:45.678Z,13.67
2019-05-02T16:50:50.272Z,19.00
2019-05-02T16:55:58.400Z,16.29
2019-05-02T17:01:01.112Z,14.14
2019-05-02T17:06:04.768Z,16.50
2019-05-02T17:11:08.384Z,20.00
2019-05-02T17:16:17.077Z,16.71
2019-05-02T17:21:22.059Z,16.00
2019-05-02T17:26:28.022Z,15.43
2019-05-02T17:31:32.564Z,17.71
2019-05-02T17:36:37.244Z,18.00
2019-05-02T17:41:42.303Z,18.00
2019-05-02T17:46:50.693Z,18.87
2019-05-02T17:52:05.402Z,18.75
2019-05-02T17:57:02.604Z,19.00
2019-05-02T18:02:12.298Z,16.43
2019-05-02T18:07:18.065Z,20.00
2019-05-02T18:12:21.798Z,29.00
2019-05-02T18:17:29.146Z,24.00
2019-05-02T18:22:34.830Z,32.75
2019-05-02T18:27:42.121Z,23.62
2019-05-02T18:32:52.878Z,34.18
2019-05-02T18:38:02.548Z,41.88
2019-05-02T18:43:11.575Z,36.25
2019-05-02T18:48:18.523Z,29.14
2019-05-02T18:53:25.776Z,28.25
2019-05-02T18:58:28.502Z,29.00
2019-05-02T19:03:33.428Z,28.50
2019-05-02T19:08:46.777Z,31.37
2019-05-02T19:13:52.498Z,34.50
2019-05-02T19:18:58.370Z,25.25
2019-05-02T19:24:02.430Z,43.00
2019-05-02T19:29:08.385Z,38.67
2019-05-02T19:34:16.837Z,25.75
2019-05-02T19:39:23.929Z,38.25
2019-05-02T19:44:29.461Z,33.50
2019-05-02T19:49:35.834Z,36.00
2019-05-02T19:54:45.202Z,37.88
2019-05-02T19:59:52.445Z,42.25
2019-05-02T20:04:59.928Z,26.00
2019-05-02T20:10:08.206Z,36.00
2019-05-02T20:15:17.068Z,34.00
2019-05-02T20:20:35.856Z,32.13
2019-05-02T20:25:40.139Z,41.00
2019-05-02T20:30:48.771Z,39.63
2019-05-02T20:35:54.917Z,46.25
2019-05-02T20:41:04.372Z,41.00
2019-05-02T20:46:13.085Z,42.13
2019-05-02T20:51:16.828Z,44.25
2019-05-02T20:56:27.976Z,41.50
2019-05-02T21:01:39.872Z,45.00
2019-05-02T21:06:45.956Z,40.63
2019-05-02T21:11:52.508Z,45.00
2019-05-02T21:16:56.976Z,45.00
2019-05-02T21:22:07.234Z,41.37
2019-05-02T21:27:15.226Z,55.00
2019-05-02T21:32:22.981Z,46.13
2019-05-02T21:37:31.845Z,47.22
2019-05-02T21:42:38.317Z,16.50
2019-05-02T21:47:42.590Z,52.00
2019-05-02T21:52:52.586Z,45.63
2019-05-02T21:57:59.587Z,41.00
2019-05-02T22:03:04.663Z,47.25
2019-05-02T22:08:08.879Z,47.50
2019-05-02T22:13:14.716Z,46.29
2019-05-02T22:18:22.172Z,51.00
2019-05-02T22:23:33.682Z,47.50
2019-05-02T22:28:39.751Z,43.75
2019-05-02T22:33:48.856Z,45.00
2019-05-02T22:38:57.118Z,48.22
2019-05-02T22:44:02.192Z,43.29
2019-05-02T22:49:09.166Z,43.00
2019-05-02T22:54:29.953Z,42.38
2019-05-02T22:59:28.062Z,47.33
2019-05-02T23:04:37.254Z,49.13
2019-05-02T23:09:43.709Z,47.00
2019-05-02T23:14:49.669Z,47.00
2019-05-02T23:19:57.979Z,42.13
2019-05-02T23:25:04.758Z,45.75
2019-05-02T23:30:14.213Z,44.88
2019-05-02T23:35:19.139Z,46.00
2019-05-02T23:40:24.900Z,47.62
2019-05-02T23:45:32.347Z,45.75
2019-05-02T23:50:41.474Z,43.50
2019-05-02T23:55:50.603Z,44.00
